createdAt,value
2023-04-30T00:00:51.833Z,9.92
2023-04-30T00:03:37.412Z,9.85
2023-04-30T00:06:09.453Z,9.86
2023-04-30T00:08:41.293Z,9.83
2023-04-30T00:11:13.068Z,9.87
2023-04-30T00:13:44.859Z,9.86
2023-04-30T00:16:16.686Z,9.84
2023-04-30T00:18:48.468Z,9.74
2023-04-30T00:21:20.301Z,9.81
2023-04-30T00:23:52.443Z,9.85
2023-04-30T00:26:24.284Z,9.73
2023-04-30T00:28:56.488Z,9.76
2023-04-30T00:31:28.726Z,9.63
2023-04-30T00:34:01.233Z,9.58
2023-04-30T00:36:33.332Z,9.53
2023-04-30T00:39:05.132Z,9.49
2023-04-30T00:41:37.950Z,9.40
2023-04-30T00:44:08.127Z,9.33
2023-04-30T00:46:39.941Z,9.32
2023-04-30T00:49:11.820Z,9.24
2023-04-30T00:51:45.003Z,9.25
2023-04-30T00:54:17.661Z,9.24
2023-04-30T00:56:49.612Z,9.28
2023-04-30T00:59:22.109Z,9.27
2023-04-30T01:01:54.655Z,9.27
2023-04-30T01:04:27.184Z,9.20
2023-04-30T01:07:02.127Z,9.15
2023-04-30T01:09:34.206Z,9.14
2023-04-30T01:12:14.582Z,9.09
2023-04-30T01:14:58.328Z,9.08
2023-04-30T01:17:36.634Z,8.98
2023-04-30T01:20:12.594Z,9.01
2023-04-30T01:22:56.002Z,8.87
2023-04-30T01:25:46.140Z,8.90
2023-04-30T01:28:20.167Z,8.85
2023-04-30T01:30:52.985Z,8.87
2023-04-30T01:33:25.245Z,8.82
2023-04-30T01:36:21.231Z,8.73
2023-04-30T01:39:24.003Z,8.65
2023-04-30T01:42:05.017Z,8.60
2023-04-30T01:44:50.217Z,8.53
2023-04-30T01:47:32.042Z,8.47
2023-04-30T01:50:14.794Z,8.45
2023-04-30T01:52:51.773Z,8.50
2023-04-30T01:55:29.453Z,8.45
2023-04-30T01:58:03.950Z,8.36
2023-04-30T02:00:36.250Z,8.35
2023-04-30T02:03:08.286Z,8.24
2023-04-30T02:05:40.389Z,8.27
2023-04-30T02:08:12.399Z,8.09
2023-04-30T02:10:44.525Z,8.23
2023-04-30T02:13:16.532Z,8.24
2023-04-30T02:15:48.578Z,8.30
2023-04-30T02:18:20.440Z,8.35
2023-04-30T02:20:52.180Z,8.25
2023-04-30T02:23:24.185Z,8.20
2023-04-30T02:25:55.961Z,8.06
2023-04-30T02:28:27.814Z,8.07
2023-04-30T02:30:59.794Z,8.07
2023-04-30T02:33:31.667Z,8.11
2023-04-30T02:36:03.863Z,8.06
2023-04-30T02:38:35.620Z,8.04
2023-04-30T02:41:07.439Z,8.09
2023-04-30T02:43:39.158Z,8.06
2023-04-30T02:46:10.916Z,8.10
2023-04-30T02:48:42.652Z,7.98
2023-04-30T02:51:14.491Z,8.06
2023-04-30T02:53:46.157Z,8.07
2023-04-30T02:56:18.064Z,8.04
2023-04-30T02:58:49.821Z,7.89
2023-04-30T03:01:21.662Z,7.82
2023-04-30T03:03:53.968Z,7.80
2023-04-30T03:06:25.887Z,7.79
2023-04-30T03:08:57.628Z,7.78
2023-04-30T03:11:29.485Z,7.77
2023-04-30T03:14:00.562Z,7.69
2023-04-30T03:16:32.364Z,7.60
2023-04-30T03:19:04.357Z,7.51
2023-04-30T03:21:36.103Z,7.49
2023-04-30T03:24:08.595Z,7.41
2023-04-30T03:26:41.797Z,7.36
2023-04-30T03:29:13.859Z,7.39
2023-04-30T03:31:45.526Z,7.47
2023-04-30T03:34:17.444Z,7.44
2023-04-30T03:36:49.155Z,7.36
2023-04-30T03:39:21.047Z,7.27
2023-04-30T03:41:52.847Z,7.33
2023-04-30T03:44:24.636Z,7.35
2023-04-30T03:46:56.417Z,7.33
2023-04-30T03:49:28.161Z,7.34
2023-04-30T03:52:00.142Z,7.30
2023-04-30T03:54:33.833Z,7.25
2023-04-30T03:57:07.671Z,7.22
2023-04-30T03:59:39.464Z,7.06
2023-04-30T04:02:11.864Z,7.14
2023-04-30T04:04:44.187Z,7.21
2023-04-30T04:07:16.146Z,7.15
2023-04-30T04:09:48.190Z,7.11
2023-04-30T04:12:20.198Z,7.04
2023-04-30T04:14:52.099Z,7.00
2023-04-30T04:17:23.892Z,7.11
2023-04-30T04:19:56.028Z,7.16
2023-04-30T04:22:28.165Z,7.14
2023-04-30T04:25:00.097Z,7.15
2023-04-30T04:27:32.045Z,7.20
2023-04-30T04:30:04.805Z,7.17
2023-04-30T04:32:42.178Z,7.12
2023-04-30T04:35:14.367Z,7.02
2023-04-30T04:37:46.420Z,6.92
2023-04-30T04:40:18.584Z,6.91
2023-04-30T04:42:53.017Z,6.93
2023-04-30T04:45:24.786Z,6.94
2023-04-30T04:47:56.619Z,6.95
2023-04-30T04:50:28.633Z,6.99
2023-04-30T04:53:00.443Z,6.95
2023-04-30T04:55:32.500Z,6.99
2023-04-30T04:58:04.259Z,7.04
2023-04-30T05:00:36.004Z,7.12
2023-04-30T05:03:09.402Z,7.12
2023-04-30T05:05:41.466Z,7.10
2023-04-30T05:08:13.223Z,7.14
2023-04-30T05:10:44.962Z,7.19
2023-04-30T05:13:16.945Z,7.24
2023-04-30T05:15:49.080Z,7.26
2023-04-30T05:18:20.980Z,7.27
2023-04-30T05:20:52.786Z,7.24
2023-04-30T05:23:24.548Z,7.21
2023-04-30T05:25:57.107Z,7.26
2023-04-30T05:28:28.832Z,7.29
2023-04-30T05:31:00.724Z,7.30
2023-04-30T05:33:32.489Z,7.34
2023-04-30T05:36:04.611Z,7.40
2023-04-30T05:38:36.329Z,7.49
2023-04-30T05:41:08.307Z,7.58
2023-04-30T05:43:40.050Z,7.69
2023-04-30T05:46:11.845Z,7.76
2023-04-30T05:48:43.609Z,7.82
2023-04-30T05:51:15.929Z,7.90
2023-04-30T05:53:48.097Z,7.95
2023-04-30T05:56:19.885Z,7.97
2023-04-30T05:58:52.550Z,7.99
2023-04-30T06:01:23.344Z,8.04
2023-04-30T06:03:55.410Z,8.00
2023-04-30T06:06:27.950Z,8.08
2023-04-30T06:08:59.864Z,8.17
2023-04-30T06:11:32.172Z,8.19
2023-04-30T06:14:05.067Z,8.23
2023-04-30T06:16:36.950Z,8.26
2023-04-30T06:19:09.130Z,8.31
2023-04-30T06:21:43.536Z,8.33
2023-04-30T06:24:15.529Z,8.38
2023-04-30T06:26:47.313Z,8.38
2023-04-30T06:29:19.014Z,8.47
2023-04-30T06:31:50.971Z,8.52
2023-04-30T06:34:22.927Z,8.61
2023-04-30T06:36:54.693Z,8.69
2023-04-30T06:39:26.475Z,8.75
2023-04-30T06:41:58.268Z,8.78
2023-04-30T06:44:33.112Z,8.80
2023-04-30T06:47:04.835Z,8.85
2023-04-30T06:49:36.553Z,8.91
2023-04-30T06:52:08.425Z,8.91
2023-04-30T06:54:40.591Z,8.87
2023-04-30T06:57:12.581Z,8.90
2023-04-30T06:59:44.288Z,8.91
2023-04-30T07:02:16.255Z,8.95
2023-04-30T07:04:49.457Z,9.02
2023-04-30T07:07:21.778Z,9.08
2023-04-30T07:09:53.789Z,9.01
2023-04-30T07:12:26.095Z,9.06
2023-04-30T07:14:57.915Z,9.18
2023-04-30T07:17:29.883Z,9.23
2023-04-30T07:20:01.707Z,9.31
2023-04-30T07:22:33.606Z,9.25
2023-04-30T07:25:06.885Z,9.21
2023-04-30T07:27:38.819Z,9.18
2023-04-30T07:30:11.862Z,9.26
2023-04-30T07:32:43.840Z,9.17
2023-04-30T07:35:15.949Z,9.16
2023-04-30T07:37:47.943Z,9.19
2023-04-30T07:40:29.038Z,9.12
2023-04-30T07:43:07.060Z,9.12
2023-04-30T07:45:39.017Z,9.19
2023-04-30T07:48:10.957Z,9.22
2023-04-30T07:50:42.792Z,9.21
2023-04-30T07:53:14.530Z,9.23
2023-04-30T07:55:46.628Z,9.27
2023-04-30T07:58:18.513Z,9.30
2023-04-30T08:00:50.345Z,9.44
2023-04-30T08:03:22.334Z,9.54
2023-04-30T08:05:54.616Z,9.61
2023-04-30T08:08:26.438Z,9.70
2023-04-30T08:10:58.203Z,9.71
2023-04-30T08:13:30.844Z,9.76
2023-04-30T08:16:01.197Z,9.65
2023-04-30T08:18:33.288Z,9.61
2023-04-30T08:21:05.749Z,9.60
2023-04-30T08:23:37.667Z,9.68
2023-04-30T08:26:09.803Z,9.83
2023-04-30T08:28:41.818Z,9.91
2023-04-30T08:31:13.721Z,9.92
2023-04-30T08:33:45.578Z,9.99
2023-04-30T08:36:17.389Z,9.93
2023-04-30T08:38:49.471Z,9.97
2023-04-30T08:41:26.697Z,10.03
2023-04-30T08:44:02.275Z,10.06
2023-04-30T08:46:37.628Z,10.19
2023-04-30T08:49:09.996Z,10.14
2023-04-30T08:51:42.791Z,10.15
2023-04-30T08:54:14.201Z,10.19
2023-04-30T08:56:47.820Z,10.23
2023-04-30T08:59:19.796Z,10.27
2023-04-30T09:01:53.813Z,10.34
2023-04-30T09:04:26.217Z,10.40
2023-04-30T09:06:59.688Z,10.38
2023-04-30T09:09:38.642Z,10.46
2023-04-30T09:12:20.109Z,10.45
2023-04-30T09:15:03.509Z,10.55
2023-04-30T09:17:34.235Z,10.58
2023-04-30T09:20:14.301Z,10.64
2023-04-30T09:22:46.125Z,10.77
2023-04-30T09:25:17.929Z,10.82
2023-04-30T09:27:49.781Z,10.92
2023-04-30T09:30:34.615Z,11.01
2023-04-30T09:33:08.680Z,11.08
2023-04-30T09:35:43.323Z,11.12
2023-04-30T09:38:29.566Z,11.10
2023-04-30T09:41:02.909Z,11.12
2023-04-30T09:43:34.785Z,11.21
2023-04-30T09:46:06.611Z,11.35
2023-04-30T09:48:42.413Z,11.41
2023-04-30T09:51:14.300Z,11.50
2023-04-30T09:53:46.803Z,11.58
2023-04-30T09:56:23.847Z,11.68
2023-04-30T09:58:58.513Z,11.72
2023-04-30T10:01:30.837Z,11.81
2023-04-30T10:04:03.458Z,11.99
2023-04-30T10:06:35.898Z,12.11
2023-04-30T10:09:11.840Z,12.27
2023-04-30T10:11:44.518Z,12.47
2023-04-30T10:14:17.161Z,12.37
2023-04-30T10:16:55.907Z,12.47
2023-04-30T10:19:32.089Z,12.50
2023-04-30T10:22:05.222Z,12.59
2023-04-30T10:24:37.752Z,12.82
2023-04-30T10:27:09.850Z,12.95
2023-04-30T10:29:41.603Z,12.99
2023-04-30T10:32:15.025Z,12.97
2023-04-30T10:34:56.509Z,12.97
2023-04-30T10:37:33.673Z,12.99
2023-04-30T10:40:09.122Z,13.10
2023-04-30T10:42:49.091Z,13.02
2023-04-30T10:45:35.299Z,13.13
2023-04-30T10:48:08.439Z,13.35
2023-04-30T10:50:46.281Z,13.52
2023-04-30T10:53:22.847Z,13.59
2023-04-30T10:55:58.953Z,13.66
2023-04-30T10:58:34.364Z,13.73
2023-04-30T11:01:10.864Z,13.76
2023-04-30T11:03:44.268Z,13.62
2023-04-30T11:06:20.337Z,13.72
2023-04-30T11:08:52.272Z,13.78
2023-04-30T11:11:24.150Z,13.92
2023-04-30T11:14:02.711Z,14.01
2023-04-30T11:16:36.785Z,14.10
2023-04-30T11:19:14.953Z,14.13
2023-04-30T11:22:21.029Z,14.26
2023-04-30T11:25:05.395Z,14.37
2023-04-30T11:27:38.281Z,14.43
2023-04-30T11:30:14.979Z,14.36
2023-04-30T11:32:48.991Z,14.46
2023-04-30T11:35:21.753Z,14.42
2023-04-30T11:37:55.949Z,14.40
2023-04-30T11:40:28.455Z,14.46
2023-04-30T11:43:00.301Z,14.62
2023-04-30T11:45:32.364Z,14.60
2023-04-30T11:48:04.526Z,14.63
2023-04-30T11:50:43.729Z,14.59
2023-04-30T11:53:15.588Z,14.67
2023-04-30T11:55:47.386Z,14.74
2023-04-30T11:58:20.754Z,14.85
2023-04-30T12:00:53.516Z,14.97
2023-04-30T12:03:25.827Z,15.04
2023-04-30T12:05:58.221Z,15.07
2023-04-30T12:08:30.161Z,15.06
2023-04-30T12:11:02.145Z,15.01
2023-04-30T12:13:35.261Z,14.95
2023-04-30T12:16:07.873Z,14.90
2023-04-30T12:18:39.624Z,14.96
2023-04-30T12:21:11.741Z,15.17
2023-04-30T12:23:45.141Z,15.26
2023-04-30T12:26:17.821Z,15.10
2023-04-30T12:28:52.694Z,15.11
2023-04-30T12:31:24.561Z,14.97
2023-04-30T12:33:59.693Z,14.92
2023-04-30T12:36:36.873Z,15.16
2023-04-30T12:39:13.269Z,15.23
2023-04-30T12:41:46.468Z,15.22
2023-04-30T12:44:20.733Z,15.12
2023-04-30T12:46:56.327Z,15.22
2023-04-30T12:49:30.470Z,15.42
2023-04-30T12:52:04.265Z,15.49
2023-04-30T12:54:37.431Z,15.47
2023-04-30T12:57:10.821Z,15.47
2023-04-30T12:59:59.787Z,15.58
2023-04-30T13:02:32.307Z,15.55
2023-04-30T13:05:02.783Z,15.58
2023-04-30T13:07:40.712Z,15.51
2023-04-30T13:10:13.834Z,15.57
2023-04-30T13:12:45.535Z,15.67
2023-04-30T13:15:17.856Z,15.74
2023-04-30T13:17:50.072Z,15.74
2023-04-30T13:20:22.013Z,15.80
2023-04-30T13:22:53.925Z,15.89
2023-04-30T13:25:25.914Z,15.85
2023-04-30T13:27:57.580Z,15.94
2023-04-30T13:30:29.755Z,16.00
2023-04-30T13:33:01.683Z,16.00
2023-04-30T13:35:33.473Z,15.97
2023-04-30T13:38:05.279Z,16.02
2023-04-30T13:40:37.142Z,16.02
2023-04-30T13:43:08.908Z,16.11
2023-04-30T13:45:41.014Z,16.19
2023-04-30T13:48:12.817Z,16.34
2023-04-30T13:50:44.619Z,16.48
2023-04-30T13:53:16.348Z,16.61
2023-04-30T13:55:48.043Z,16.60
2023-04-30T13:58:19.796Z,16.62
2023-04-30T14:00:51.554Z,16.65
2023-04-30T14:03:23.422Z,16.77
2023-04-30T14:05:55.548Z,16.60
2023-04-30T14:08:27.331Z,16.79
2023-04-30T14:10:59.169Z,17.05
2023-04-30T14:13:31.138Z,17.14
2023-04-30T14:16:03.057Z,16.95
2023-04-30T14:18:35.055Z,16.94
2023-04-30T14:21:07.517Z,17.02
2023-04-30T14:23:38.795Z,17.13
2023-04-30T14:26:10.617Z,17.19
2023-04-30T14:28:42.440Z,16.98
2023-04-30T14:31:14.313Z,17.03
2023-04-30T14:33:46.539Z,17.13
2023-04-30T14:36:18.625Z,17.22
2023-04-30T14:38:50.410Z,17.28
2023-04-30T14:41:22.269Z,17.48
2023-04-30T14:43:54.135Z,17.82
2023-04-30T14:46:26.467Z,17.80
2023-04-30T14:48:58.485Z,17.77
2023-04-30T14:51:30.743Z,18.11
2023-04-30T14:54:03.428Z,18.01
2023-04-30T14:56:33.830Z,18.04
2023-04-30T14:59:06.077Z,18.07
2023-04-30T15:01:37.891Z,18.31
2023-04-30T15:04:10.138Z,18.48
2023-04-30T15:06:42.176Z,18.57
2023-04-30T15:09:14.172Z,18.44
2023-04-30T15:11:46.199Z,18.34
2023-04-30T15:14:17.983Z,18.29
2023-04-30T15:16:49.872Z,18.62
2023-04-30T15:19:21.765Z,18.80
2023-04-30T15:21:53.552Z,18.69
2023-04-30T15:24:26.017Z,18.67
2023-04-30T15:26:58.609Z,18.99
2023-04-30T15:29:29.410Z,19.08
2023-04-30T15:32:01.207Z,19.23
2023-04-30T15:34:33.030Z,19.07
2023-04-30T15:37:05.840Z,19.00
2023-04-30T15:39:38.054Z,18.94
2023-04-30T15:42:09.805Z,19.09
2023-04-30T15:44:41.751Z,18.99
2023-04-30T15:47:13.893Z,18.82
2023-04-30T15:49:45.676Z,18.78
2023-04-30T15:52:17.417Z,18.52
2023-04-30T15:54:49.895Z,18.42
2023-04-30T15:57:21.950Z,18.31
2023-04-30T15:59:54.934Z,18.26
2023-04-30T16:02:27.194Z,18.33
2023-04-30T16:04:59.177Z,18.45
2023-04-30T16:07:31.876Z,18.58
2023-04-30T16:10:02.686Z,18.81
2023-04-30T16:12:35.107Z,18.93
2023-04-30T16:15:08.740Z,19.11
2023-04-30T16:17:40.966Z,19.20
2023-04-30T16:20:14.300Z,19.66
2023-04-30T16:22:46.060Z,19.94
2023-04-30T16:25:17.864Z,20.14
2023-04-30T16:27:50.205Z,20.23
2023-04-30T16:30:22.286Z,20.39
2023-04-30T16:32:54.293Z,20.33
2023-04-30T16:35:26.786Z,20.48
2023-04-30T16:37:59.218Z,20.68
2023-04-30T16:40:31.726Z,20.52
2023-04-30T16:43:02.066Z,20.01
2023-04-30T16:45:34.204Z,19.30
2023-04-30T16:48:06.333Z,18.62
2023-04-30T16:50:38.321Z,17.96
2023-04-30T16:53:11.103Z,17.51
2023-04-30T16:55:44.421Z,17.32
2023-04-30T16:58:16.689Z,16.84
2023-04-30T17:00:49.814Z,16.57
2023-04-30T17:03:21.873Z,16.29
2023-04-30T17:05:54.463Z,16.19
2023-04-30T17:08:24.881Z,16.11
2023-04-30T17:10:56.708Z,15.94
2023-04-30T17:13:30.765Z,15.80
2023-04-30T17:16:02.793Z,15.59
2023-04-30T17:18:34.687Z,15.48
2023-04-30T17:21:06.742Z,15.49
2023-04-30T17:23:38.585Z,15.37
2023-04-30T17:26:10.750Z,15.24
2023-04-30T17:28:42.530Z,15.08
2023-04-30T17:31:14.495Z,15.03
2023-04-30T17:33:46.462Z,14.99
2023-04-30T17:36:18.684Z,14.81
2023-04-30T17:38:50.537Z,14.74
2023-04-30T17:41:22.262Z,14.70
2023-04-30T17:43:54.600Z,14.64
2023-04-30T17:46:26.848Z,14.62
2023-04-30T17:49:01.517Z,14.48
2023-04-30T17:51:33.716Z,14.33
2023-04-30T17:54:05.560Z,14.20
2023-04-30T17:56:38.790Z,14.20
2023-04-30T17:59:10.538Z,14.16
2023-04-30T18:01:42.427Z,14.05
2023-04-30T18:04:20.634Z,14.10
2023-04-30T18:06:52.701Z,13.97
2023-04-30T18:09:24.595Z,13.96
2023-04-30T18:11:58.736Z,13.88
2023-04-30T18:14:32.599Z,13.78
2023-04-30T18:17:04.422Z,13.78
2023-04-30T18:19:38.636Z,13.75
2023-04-30T18:22:10.405Z,13.69
2023-04-30T18:24:42.602Z,13.68
2023-04-30T18:27:15.921Z,13.61
2023-04-30T18:29:48.860Z,13.47
2023-04-30T18:32:20.585Z,13.37
2023-04-30T18:34:52.363Z,13.21
2023-04-30T18:37:24.351Z,13.18
2023-04-30T18:39:56.584Z,13.22
2023-04-30T18:42:30.096Z,13.16
2023-04-30T18:45:02.122Z,13.15
2023-04-30T18:47:34.222Z,13.01
2023-04-30T18:50:10.315Z,12.83
2023-04-30T18:52:42.838Z,12.77
2023-04-30T18:55:15.037Z,12.81
2023-04-30T18:57:47.104Z,12.81
2023-04-30T19:00:19.158Z,12.70
2023-04-30T19:02:52.465Z,12.55
2023-04-30T19:05:24.348Z,12.43
2023-04-30T19:07:56.095Z,12.32
2023-04-30T19:10:28.595Z,12.27
2023-04-30T19:13:00.477Z,12.32
2023-04-30T19:15:32.209Z,12.37
2023-04-30T19:18:04.057Z,12.41
2023-04-30T19:20:36.009Z,12.34
2023-04-30T19:23:09.340Z,12.20
2023-04-30T19:25:41.178Z,12.05
2023-04-30T19:28:14.593Z,11.89
2023-04-30T19:30:46.687Z,11.83
2023-04-30T19:33:18.543Z,11.73
2023-04-30T19:35:53.273Z,11.63
2023-04-30T19:38:25.017Z,11.70
2023-04-30T19:40:57.081Z,11.57
2023-04-30T19:43:28.926Z,11.66
2023-04-30T19:46:02.104Z,11.63
2023-04-30T19:48:34.042Z,11.53
2023-04-30T19:51:07.074Z,11.52
2023-04-30T19:53:39.047Z,11.53
2023-04-30T19:56:10.726Z,11.49
2023-04-30T19:58:43.856Z,11.41
2023-04-30T20:01:16.149Z,11.38
2023-04-30T20:03:48.659Z,11.32
2023-04-30T20:06:21.082Z,11.24
2023-04-30T20:08:53.094Z,11.19
2023-04-30T20:11:25.625Z,11.10
2023-04-30T20:13:58.068Z,11.01
2023-04-30T20:16:29.871Z,11.01
2023-04-30T20:19:01.659Z,10.91
2023-04-30T20:21:34.914Z,10.99
2023-04-30T20:24:07.547Z,10.99
2023-04-30T20:26:39.374Z,10.95
2023-04-30T20:29:11.487Z,10.88
2023-04-30T20:31:43.388Z,10.78
2023-04-30T20:34:15.364Z,10.75
2023-04-30T20:36:47.829Z,10.56
2023-04-30T20:39:19.709Z,10.57
2023-04-30T20:41:52.214Z,10.61
2023-04-30T20:44:26.746Z,10.64
2023-04-30T20:46:58.582Z,10.70
2023-04-30T20:49:30.417Z,10.63
2023-04-30T20:52:02.267Z,10.47
2023-04-30T20:54:34.250Z,10.37
2023-04-30T20:57:06.471Z,10.33
2023-04-30T20:59:39.104Z,10.32
2023-04-30T21:02:10.870Z,10.26
2023-04-30T21:04:42.773Z,10.34
2023-04-30T21:07:14.556Z,10.19
2023-04-30T21:09:46.522Z,10.14
2023-04-30T21:12:18.514Z,10.16
2023-04-30T21:14:50.221Z,10.13
2023-04-30T21:17:22.181Z,10.20
2023-04-30T21:19:55.108Z,10.23
2023-04-30T21:22:27.599Z,10.31
2023-04-30T21:24:59.284Z,10.22
2023-04-30T21:27:30.956Z,10.24
2023-04-30T21:30:03.368Z,10.19
2023-04-30T21:32:35.147Z,10.19
2023-04-30T21:35:08.139Z,10.22
2023-04-30T21:37:40.744Z,10.14
2023-04-30T21:40:13.619Z,10.17
2023-04-30T21:42:45.364Z,10.11
2023-04-30T21:45:17.036Z,10.06
2023-04-30T21:47:50.975Z,10.05
2023-04-30T21:50:23.709Z,10.00
2023-04-30T21:52:55.453Z,10.05
2023-04-30T21:55:27.644Z,10.12
2023-04-30T21:57:59.550Z,10.11
2023-04-30T22:00:31.408Z,10.12
2023-04-30T22:03:03.842Z,10.08
2023-04-30T22:05:35.784Z,10.12
2023-04-30T22:08:08.264Z,9.94
2023-04-30T22:10:39.989Z,9.95
2023-04-30T22:13:12.329Z,9.86
2023-04-30T22:15:48.106Z,9.83
2023-04-30T22:18:20.701Z,9.80
2023-04-30T22:20:53.723Z,9.86
2023-04-30T22:23:25.862Z,9.87
2023-04-30T22:25:57.590Z,9.84
2023-04-30T22:28:29.397Z,9.71
2023-04-30T22:31:01.494Z,9.63
2023-04-30T22:33:37.031Z,9.67
2023-04-30T22:36:10.424Z,9.53
2023-04-30T22:38:42.128Z,9.54
2023-04-30T22:41:13.809Z,9.51
2023-04-30T22:43:48.654Z,9.32
2023-04-30T22:46:20.348Z,9.27
2023-04-30T22:48:55.359Z,9.18
2023-04-30T22:51:27.587Z,9.02
2023-04-30T22:53:59.344Z,9.06
2023-04-30T22:56:31.063Z,8.91
2023-04-30T22:59:03.178Z,9.03
2023-04-30T23:01:35.802Z,9.06
2023-04-30T23:04:09.540Z,9.02
2023-04-30T23:06:42.759Z,9.05
2023-04-30T23:09:15.485Z,9.10
2023-04-30T23:11:48.154Z,9.15
2023-04-30T23:14:20.093Z,9.18
2023-04-30T23:16:51.918Z,9.21
2023-04-30T23:19:24.106Z,9.17
2023-04-30T23:21:56.871Z,9.23
2023-04-30T23:24:28.808Z,9.16
2023-04-30T23:27:00.616Z,9.14
2023-04-30T23:29:33.268Z,9.12
2023-04-30T23:32:06.297Z,9.11
2023-04-30T23:34:38.037Z,9.10
2023-04-30T23:37:09.682Z,9.12
2023-04-30T23:39:41.563Z,9.08
2023-04-30T23:42:13.626Z,8.96
2023-04-30T23:44:45.462Z,8.98
2023-04-30T23:47:17.885Z,9.01
2023-04-30T23:49:49.552Z,9.02
2023-04-30T23:52:21.387Z,8.96
2023-04-30T23:54:53.153Z,8.97
2023-04-30T23:57:25.834Z,8.98
2023-04-30T23:59:56.639Z,8.97
